createdAt,value
2023-01-08T00:01:33.509Z,100546.00
2023-01-08T00:04:02.572Z,100540.81
2023-01-08T00:06:31.298Z,100535.53
2023-01-08T00:08:59.691Z,100538.06
2023-01-08T00:11:28.083Z,100528.50
2023-01-08T00:13:57.866Z,100524.91
2023-01-08T00:16:26.288Z,100515.47
2023-01-08T00:18:54.863Z,100512.88
2023-01-08T00:21:23.249Z,100533.59
2023-01-08T00:23:51.653Z,100531.72
2023-01-08T00:26:19.991Z,100525.63
2023-01-08T00:28:48.645Z,100522.19
2023-01-08T00:31:18.444Z,100516.06
2023-01-08T00:33:46.889Z,100514.19
2023-01-08T00:36:17.914Z,100507.16
2023-01-08T00:38:47.563Z,100508.91
2023-01-08T00:41:16.878Z,100508.78
2023-01-08T00:43:45.219Z,100508.78
2023-01-08T00:46:13.778Z,100500.03
2023-01-08T00:48:43.543Z,100490.53
2023-01-08T00:51:11.950Z,100493.06
2023-01-08T00:53:40.362Z,100489.59
2023-01-08T00:56:11.255Z,100477.25
2023-01-08T00:58:40.139Z,100480.66
2023-01-08T01:01:12.239Z,100478.84
2023-01-08T01:03:41.248Z,100484.75
2023-01-08T01:06:12.574Z,100482.16
2023-01-08T01:08:41.713Z,100480.41
2023-01-08T01:11:11.703Z,100466.34
2023-01-08T01:13:40.046Z,100478.22
2023-01-08T01:16:09.857Z,100467.75
2023-01-08T01:18:38.279Z,100467.63
2023-01-08T01:21:13.170Z,100472.00
2023-01-08T01:23:41.602Z,100477.00
2023-01-08T01:26:17.064Z,100472.59
2023-01-08T01:28:47.985Z,100475.00
2023-01-08T01:31:17.174Z,100464.50
2023-01-08T01:33:46.561Z,100466.97
2023-01-08T01:36:17.765Z,100460.81
2023-01-08T01:38:47.206Z,100461.94
2023-01-08T01:41:24.429Z,100444.53
2023-01-08T01:43:53.435Z,100462.50
2023-01-08T01:46:27.951Z,100465.09
2023-01-08T01:48:59.951Z,100463.19
2023-01-08T01:51:33.669Z,100457.25
2023-01-08T01:54:04.859Z,100457.19
2023-01-08T01:56:34.746Z,100435.59
2023-01-08T01:59:03.335Z,100436.38
2023-01-08T02:01:33.011Z,100431.97
2023-01-08T02:04:01.638Z,100441.38
2023-01-08T02:06:38.263Z,100442.09
2023-01-08T02:09:13.353Z,100438.56
2023-01-08T02:11:48.423Z,100427.28
2023-01-08T02:14:26.270Z,100429.84
2023-01-08T02:16:59.147Z,100429.63
2023-01-08T02:19:38.655Z,100420.00
2023-01-08T02:22:23.146Z,100419.84
2023-01-08T02:24:57.254Z,100401.59
2023-01-08T02:27:30.780Z,100405.78
2023-01-08T02:29:59.594Z,100391.03
2023-01-08T02:32:29.065Z,100383.09
2023-01-08T02:34:57.463Z,100389.78
2023-01-08T02:37:26.427Z,100392.25
2023-01-08T02:40:07.182Z,100394.63
2023-01-08T02:42:44.084Z,100397.09
2023-01-08T02:45:22.582Z,100386.63
2023-01-08T02:47:55.093Z,100385.50
2023-01-08T02:50:30.022Z,100380.06
2023-01-08T02:53:05.019Z,100379.94
2023-01-08T02:55:36.548Z,100370.44
2023-01-08T02:58:07.336Z,100374.72
2023-01-08T03:00:36.669Z,100368.56
2023-01-08T03:03:09.640Z,100359.97
2023-01-08T03:05:42.121Z,100351.41
2023-01-08T03:08:12.859Z,100355.59
2023-01-08T03:10:44.791Z,100356.25
2023-01-08T03:13:21.452Z,100355.28
2023-01-08T03:15:54.320Z,100355.13
2023-01-08T03:18:29.051Z,100349.78
2023-01-08T03:20:57.514Z,100359.16
2023-01-08T03:23:28.959Z,100356.50
2023-01-08T03:26:00.026Z,100353.75
2023-01-08T03:28:34.711Z,100352.00
2023-01-08T03:31:04.443Z,100342.59
2023-01-08T03:33:34.027Z,100341.75
2023-01-08T03:36:06.507Z,100331.34
2023-01-08T03:38:41.291Z,100328.69
2023-01-08T03:41:14.406Z,100332.09
2023-01-08T03:43:44.194Z,100337.19
2023-01-08T03:46:17.379Z,100331.91
2023-01-08T03:48:46.911Z,100332.72
2023-01-08T03:51:15.403Z,100324.16
2023-01-08T03:53:43.760Z,100328.44
2023-01-08T03:56:12.105Z,100337.81
2023-01-08T03:58:40.519Z,100342.03
2023-01-08T04:01:10.368Z,100344.31
2023-01-08T04:03:38.891Z,100347.66
2023-01-08T04:06:07.702Z,100341.63
2023-01-08T04:08:36.074Z,100339.06
2023-01-08T04:11:04.422Z,100333.75
2023-01-08T04:13:32.869Z,100342.31
2023-01-08T04:16:01.278Z,100350.00
2023-01-08T04:18:31.002Z,100332.00
2023-01-08T04:20:59.383Z,100331.19
2023-01-08T04:23:27.842Z,100335.41
2023-01-08T04:25:56.182Z,100333.63
2023-01-08T04:28:25.019Z,100341.34
2023-01-08T04:30:53.498Z,100337.84
2023-01-08T04:33:21.951Z,100328.44
2023-01-08T04:35:51.724Z,100320.84
2023-01-08T04:38:20.078Z,100316.50
2023-01-08T04:40:48.459Z,100313.13
2023-01-08T04:43:16.832Z,100294.97
2023-01-08T04:45:45.184Z,100302.03
2023-01-08T04:48:13.582Z,100297.78
2023-01-08T04:50:41.973Z,100300.34
2023-01-08T04:53:11.922Z,100292.59
2023-01-08T04:55:40.353Z,100292.63
2023-01-08T04:58:08.742Z,100298.75
2023-01-08T05:00:37.998Z,100299.63
2023-01-08T05:03:06.676Z,100306.56
2023-01-08T05:05:35.672Z,100296.13
2023-01-08T05:08:04.111Z,100297.03
2023-01-08T05:10:33.896Z,100296.25
2023-01-08T05:13:02.577Z,100278.22
2023-01-08T05:15:31.208Z,100298.19
2023-01-08T05:18:00.791Z,100297.34
2023-01-08T05:20:29.485Z,100272.44
2023-01-08T05:22:58.573Z,100282.81
2023-01-08T05:25:27.078Z,100277.00
2023-01-08T05:27:56.887Z,100277.06
2023-01-08T05:30:25.263Z,100274.56
2023-01-08T05:32:53.677Z,100275.41
2023-01-08T05:35:22.611Z,100278.19
2023-01-08T05:37:50.988Z,100275.78
2023-01-08T05:40:19.594Z,100273.25
2023-01-08T05:42:47.982Z,100273.34
2023-01-08T05:45:18.009Z,100273.50
2023-01-08T05:47:46.407Z,100275.25
2023-01-08T05:50:14.737Z,100268.47
2023-01-08T05:52:43.109Z,100266.78
2023-01-08T05:55:11.654Z,100260.88
2023-01-08T05:57:40.025Z,100260.09
2023-01-08T06:00:11.176Z,100261.84
2023-01-08T06:02:41.256Z,100263.59
2023-01-08T06:05:09.835Z,100266.25
2023-01-08T06:07:38.235Z,100255.16
2023-01-08T06:10:07.347Z,100258.78
2023-01-08T06:12:35.763Z,100246.66
2023-01-08T06:15:04.647Z,100249.34
2023-01-08T06:17:33.931Z,100248.47
2023-01-08T06:20:03.733Z,100245.06
2023-01-08T06:22:33.551Z,100241.75
2023-01-08T06:25:02.381Z,100239.31
2023-01-08T06:27:31.145Z,100235.88
2023-01-08T06:29:59.533Z,100229.88
2023-01-08T06:32:28.007Z,100231.66
2023-01-08T06:34:56.440Z,100229.94
2023-01-08T06:37:26.189Z,100231.78
2023-01-08T06:39:54.561Z,100232.63
2023-01-08T06:42:22.897Z,100234.53
2023-01-08T06:44:51.301Z,100228.59
2023-01-08T06:47:19.649Z,100234.66
2023-01-08T06:49:48.016Z,100229.53
2023-01-08T06:52:16.362Z,100235.63
2023-01-08T06:54:46.070Z,100237.41
2023-01-08T06:57:14.453Z,100239.09
2023-01-08T06:59:42.823Z,100230.47
2023-01-08T07:02:15.011Z,100227.88
2023-01-08T07:04:43.885Z,100237.50
2023-01-08T07:07:13.709Z,100230.13
2023-01-08T07:09:42.638Z,100232.75
2023-01-08T07:12:14.674Z,100232.97
2023-01-08T07:14:43.210Z,100233.09
2023-01-08T07:17:11.682Z,100234.06
2023-01-08T07:19:40.070Z,100233.28
2023-01-08T07:22:08.892Z,100229.88
2023-01-08T07:24:37.259Z,100238.66
2023-01-08T07:27:05.612Z,100236.19
2023-01-08T07:29:35.379Z,100237.94
2023-01-08T07:32:03.827Z,100242.38
2023-01-08T07:34:32.765Z,100242.47
2023-01-08T07:37:01.122Z,100243.41
2023-01-08T07:39:29.547Z,100247.78
2023-01-08T07:41:57.895Z,100236.84
2023-01-08T07:44:26.233Z,100246.41
2023-01-08T07:46:56.440Z,100246.31
2023-01-08T07:49:24.877Z,100246.63
2023-01-08T07:51:53.251Z,100244.84
2023-01-08T07:54:21.625Z,100248.22
2023-01-08T07:56:49.945Z,100246.50
2023-01-08T07:59:18.316Z,100240.28
2023-01-08T08:01:46.922Z,100241.13
2023-01-08T08:04:17.591Z,100235.97
2023-01-08T08:06:45.930Z,100234.97
2023-01-08T08:09:14.299Z,100234.09
2023-01-08T08:11:42.764Z,100229.88
2023-01-08T08:14:11.094Z,100226.50
2023-01-08T08:16:39.498Z,100219.66
2023-01-08T08:19:07.911Z,100219.59
2023-01-08T08:21:37.624Z,100224.88
2023-01-08T08:24:07.085Z,100241.31
2023-01-08T08:26:35.581Z,100228.38
2023-01-08T08:29:04.442Z,100231.72
2023-01-08T08:31:32.881Z,100222.19
2023-01-08T08:34:01.365Z,100223.13
2023-01-08T08:36:30.544Z,100211.13
2023-01-08T08:39:00.835Z,100217.13
2023-01-08T08:41:29.612Z,100197.28
2023-01-08T08:43:58.086Z,100205.03
2023-01-08T08:46:26.476Z,100200.84
2023-01-08T08:48:54.858Z,100191.34
2023-01-08T08:51:23.263Z,100200.13
2023-01-08T08:53:51.650Z,100194.97
2023-01-08T08:56:21.366Z,100204.53
2023-01-08T08:58:50.697Z,100196.81
2023-01-08T09:01:19.254Z,100199.41
2023-01-08T09:03:47.987Z,100194.28
2023-01-08T09:06:16.971Z,100199.66
2023-01-08T09:08:45.484Z,100192.03
2023-01-08T09:11:14.579Z,100175.69
2023-01-08T09:13:44.394Z,100175.72
2023-01-08T09:16:12.839Z,100169.84
2023-01-08T09:18:41.216Z,100160.41
2023-01-08T09:21:09.954Z,100142.28
2023-01-08T09:23:39.152Z,100143.41
2023-01-08T09:26:08.247Z,100159.00
2023-01-08T09:28:38.017Z,100169.47
2023-01-08T09:31:07.956Z,100177.34
2023-01-08T09:33:36.418Z,100186.13
2023-01-08T09:36:05.250Z,100187.09
2023-01-08T09:38:33.609Z,100194.81
2023-01-08T09:41:06.280Z,100198.41
2023-01-08T09:43:37.469Z,100189.81
2023-01-08T09:46:08.539Z,100195.94
2023-01-08T09:48:39.973Z,100193.50
2023-01-08T09:51:13.281Z,100206.63
2023-01-08T09:53:43.180Z,100216.75
2023-01-08T09:56:14.323Z,100209.91
2023-01-08T09:58:46.038Z,100205.63
2023-01-08T10:01:19.089Z,100201.22
2023-01-08T10:03:51.850Z,100204.72
2023-01-08T10:06:20.262Z,100197.00
2023-01-08T10:08:48.817Z,100200.44
2023-01-08T10:11:17.622Z,100189.97
2023-01-08T10:13:50.277Z,100185.75
2023-01-08T10:16:27.882Z,100177.03
2023-01-08T10:18:56.352Z,100175.22
2023-01-08T10:21:30.685Z,100173.34
2023-01-08T10:23:58.911Z,100158.66
2023-01-08T10:26:29.828Z,100163.75
2023-01-08T10:29:16.986Z,100159.34
2023-01-08T10:31:52.959Z,100156.88
2023-01-08T10:34:33.678Z,100157.78
2023-01-08T10:37:02.081Z,100152.50
2023-01-08T10:39:33.078Z,100156.88
2023-01-08T10:42:07.678Z,100155.13
2023-01-08T10:44:36.870Z,100147.38
2023-01-08T10:47:07.412Z,100151.69
2023-01-08T10:49:41.909Z,100153.25
2023-01-08T10:52:25.535Z,100156.72
2023-01-08T10:54:55.698Z,100157.66
2023-01-08T10:57:28.241Z,100150.69
2023-01-08T10:59:57.578Z,100151.47
2023-01-08T11:02:35.831Z,100144.44
2023-01-08T11:05:10.884Z,100144.50
2023-01-08T11:07:41.129Z,100136.75
2023-01-08T11:10:24.069Z,100130.66
2023-01-08T11:12:57.819Z,100126.38
2023-01-08T11:15:32.344Z,100122.88
2023-01-08T11:18:23.643Z,100109.19
2023-01-08T11:20:54.007Z,100118.88
2023-01-08T11:23:24.281Z,100117.25
2023-01-08T11:26:00.159Z,100105.09
2023-01-08T11:28:46.434Z,100110.28
2023-01-08T11:31:18.678Z,100100.81
2023-01-08T11:33:54.874Z,100090.50
2023-01-08T11:36:28.763Z,100090.63
2023-01-08T11:38:57.219Z,100089.00
2023-01-08T11:41:44.337Z,100086.34
2023-01-08T11:44:25.217Z,100095.09
2023-01-08T11:47:02.910Z,100100.19
2023-01-08T11:49:48.551Z,100090.63
2023-01-08T11:52:30.687Z,100087.13
2023-01-08T11:55:23.452Z,100079.47
2023-01-08T11:58:06.914Z,100091.66
2023-01-08T12:01:16.306Z,100078.78
2023-01-08T12:03:48.441Z,100069.28
2023-01-08T12:06:33.066Z,100065.03
2023-01-08T12:09:14.631Z,100066.03
2023-01-08T12:11:50.980Z,100058.28
2023-01-08T12:14:37.350Z,100053.19
2023-01-08T12:17:41.035Z,100049.72
2023-01-08T12:20:21.549Z,100055.06
2023-01-08T12:23:01.227Z,100051.50
2023-01-08T12:25:52.200Z,100047.41
2023-01-08T12:28:36.478Z,100041.28
2023-01-08T12:31:25.652Z,100037.16
2023-01-08T12:33:57.965Z,100031.97
2023-01-08T12:36:34.301Z,100036.31
2023-01-08T12:39:09.751Z,100031.97
2023-01-08T12:41:41.070Z,100037.16
2023-01-08T12:44:12.383Z,100044.97
2023-01-08T12:46:46.003Z,100044.25
2023-01-08T12:49:18.699Z,100034.69
2023-01-08T12:51:55.947Z,100037.38
2023-01-08T12:54:32.316Z,100038.38
2023-01-08T12:57:09.238Z,100037.50
2023-01-08T12:59:43.723Z,100035.00
2023-01-08T13:02:24.821Z,100026.31
2023-01-08T13:04:53.447Z,100037.53
2023-01-08T13:07:26.607Z,100028.91
2023-01-08T13:09:58.041Z,100024.53
2023-01-08T13:12:34.672Z,100018.69
2023-01-08T13:15:03.648Z,100021.28
2023-01-08T13:17:32.178Z,100032.50
2023-01-08T13:20:02.756Z,100030.84
2023-01-08T13:22:32.773Z,100030.91
2023-01-08T13:25:32.253Z,100018.88
2023-01-08T13:28:01.256Z,100013.59
2023-01-08T13:30:42.313Z,100010.91
2023-01-08T13:33:39.752Z,100013.47
2023-01-08T13:36:16.334Z,100014.31
2023-01-08T13:38:45.151Z,100008.28
2023-01-08T13:41:28.421Z,100006.44
2023-01-08T13:44:01.639Z,100007.28
2023-01-08T13:46:30.244Z,99999.50
2023-01-08T13:49:02.675Z,100000.28
2023-01-08T13:51:42.895Z,100000.22
2023-01-08T13:54:21.187Z,100011.47
2023-01-08T13:57:02.287Z,100004.41
2023-01-08T13:59:42.564Z,99998.28
2023-01-08T14:02:26.672Z,99985.28
2023-01-08T14:04:56.067Z,99997.31
2023-01-08T14:07:26.500Z,99986.88
2023-01-08T14:09:55.276Z,99988.59
2023-01-08T14:12:26.108Z,99983.31
2023-01-08T14:14:58.957Z,99985.91
2023-01-08T14:17:31.836Z,99987.53
2023-01-08T14:20:00.759Z,99981.47
2023-01-08T14:22:33.440Z,99984.91
2023-01-08T14:25:05.089Z,99979.63
2023-01-08T14:27:36.088Z,99987.41
2023-01-08T14:30:16.770Z,99989.94
2023-01-08T14:32:45.461Z,99984.72
2023-01-08T14:35:18.008Z,99989.78
2023-01-08T14:37:46.442Z,99983.78
2023-01-08T14:40:16.126Z,99989.78
2023-01-08T14:42:53.090Z,99985.50
2023-01-08T14:45:23.578Z,99987.94
2023-01-08T14:47:54.700Z,99984.50
2023-01-08T14:50:26.812Z,99982.72
2023-01-08T14:52:58.900Z,99980.19
2023-01-08T14:55:29.150Z,99987.94
2023-01-08T14:57:59.521Z,99982.72
2023-01-08T15:00:30.376Z,99985.25
2023-01-08T15:02:58.880Z,99986.06
2023-01-08T15:05:30.748Z,99973.91
2023-01-08T15:08:02.657Z,99969.63
2023-01-08T15:10:36.001Z,99968.72
2023-01-08T15:13:07.667Z,99960.91
2023-01-08T15:15:42.672Z,99963.41
2023-01-08T15:18:13.761Z,99965.94
2023-01-08T15:20:45.895Z,99968.47
2023-01-08T15:23:26.275Z,99965.00
2023-01-08T15:25:56.193Z,99977.03
2023-01-08T15:28:26.761Z,99975.34
2023-01-08T15:30:57.094Z,99974.44
2023-01-08T15:33:26.860Z,99966.69
2023-01-08T15:35:55.475Z,99966.69
2023-01-08T15:38:24.056Z,99970.00
2023-01-08T15:40:54.176Z,99971.81
2023-01-08T15:43:21.851Z,99965.63
2023-01-08T15:45:51.876Z,99961.34
2023-01-08T15:48:20.300Z,99964.75
2023-01-08T15:50:48.823Z,99969.84
2023-01-08T15:53:19.189Z,99975.81
2023-01-08T15:55:47.540Z,99977.66
2023-01-08T15:58:16.805Z,99978.53
2023-01-08T16:00:46.728Z,99975.06
2023-01-08T16:03:17.252Z,99980.28
2023-01-08T16:05:45.665Z,99980.28
2023-01-08T16:08:14.017Z,99975.03
2023-01-08T16:10:42.367Z,99973.44
2023-01-08T16:13:12.190Z,99977.78
2023-01-08T16:15:41.001Z,99976.88
2023-01-08T16:21:14.994Z,99978.63
2023-01-08T16:23:43.395Z,99980.38
2023-01-08T16:26:14.646Z,99985.53
2023-01-08T16:28:44.307Z,99985.63
2023-01-08T16:31:12.705Z,99973.56
2023-01-08T16:33:41.103Z,99978.84
2023-01-08T16:36:11.003Z,99968.47
2023-01-08T16:38:41.128Z,99960.81
2023-01-08T16:41:09.665Z,99966.97
2023-01-08T16:43:41.018Z,99955.03
2023-01-08T16:46:13.794Z,99948.03
2023-01-08T16:48:43.204Z,99953.16
2023-01-08T16:51:12.261Z,99958.47
2023-01-08T16:53:42.379Z,99956.78
2023-01-08T16:56:11.538Z,99947.28
2023-01-08T16:58:39.941Z,99937.66
2023-01-08T17:01:10.427Z,99940.22
2023-01-08T17:03:39.550Z,99938.41
2023-01-08T17:06:10.163Z,99933.25
2023-01-08T17:08:40.288Z,99928.91
2023-01-08T17:11:11.892Z,99930.53
2023-01-08T17:13:40.344Z,99927.06
2023-01-08T17:16:11.451Z,99916.72
2023-01-08T17:18:40.089Z,99931.44
2023-01-08T17:21:09.316Z,99927.16
2023-01-08T17:23:37.722Z,99920.16
2023-01-08T17:26:09.498Z,99908.78
2023-01-08T17:28:39.656Z,99913.97
2023-01-08T17:31:10.387Z,99911.31
2023-01-08T17:33:39.184Z,99906.94
2023-01-08T17:36:12.207Z,99907.75
2023-01-08T17:38:40.846Z,99911.09
2023-01-08T17:41:09.611Z,99910.19
2023-01-08T17:43:40.287Z,99908.34
2023-01-08T17:46:09.226Z,99898.69
2023-01-08T17:48:37.576Z,99911.63
2023-01-08T17:51:09.486Z,99912.41
2023-01-08T17:53:38.010Z,99903.66
2023-01-08T17:56:07.163Z,99898.47
2023-01-08T17:58:35.799Z,99896.69
2023-01-08T18:01:10.300Z,99892.25
2023-01-08T18:03:38.759Z,99898.25
2023-01-08T18:06:07.854Z,99896.41
2023-01-08T18:08:36.229Z,99890.34
2023-01-08T18:11:06.541Z,99895.47
2023-01-08T18:13:34.984Z,99890.19
2023-01-08T18:16:05.314Z,99891.00
2023-01-08T18:18:34.486Z,99887.66
2023-01-08T18:21:03.293Z,99893.72
2023-01-08T18:23:31.703Z,99886.78
2023-01-08T18:26:05.264Z,99889.50
2023-01-08T18:28:33.790Z,99887.78
2023-01-08T18:31:02.410Z,99890.41
2023-01-08T18:33:32.181Z,99898.25
2023-01-08T18:36:03.007Z,99894.88
2023-01-08T18:38:31.350Z,99893.16
2023-01-08T18:41:00.195Z,99882.91
2023-01-08T18:43:31.396Z,99876.78
2023-01-08T18:46:00.712Z,99869.91
2023-01-08T18:48:30.090Z,99865.63
2023-01-08T18:51:03.844Z,99874.16
2023-01-08T18:53:32.790Z,99869.81
2023-01-08T18:56:01.926Z,99861.91
2023-01-08T18:58:30.659Z,99853.94
2023-01-08T19:01:04.347Z,99854.72
2023-01-08T19:03:33.109Z,99854.63
2023-01-08T19:06:02.816Z,99861.34
2023-01-08T19:08:31.370Z,99855.31
2023-01-08T19:11:04.404Z,99853.47
2023-01-08T19:13:32.946Z,99855.16
2023-01-08T19:16:04.555Z,99859.47
2023-01-08T19:18:33.134Z,99857.72
2023-01-08T19:21:02.957Z,99849.81
2023-01-08T19:23:31.424Z,99838.56
2023-01-08T19:25:59.855Z,99851.63
2023-01-08T19:28:28.257Z,99851.56
2023-01-08T19:30:56.780Z,99855.13
2023-01-08T19:33:25.715Z,99850.72
2023-01-08T19:35:54.105Z,99853.31
2023-01-08T19:38:23.849Z,99855.78
2023-01-08T19:40:52.249Z,99849.75
2023-01-08T19:43:38.237Z,99856.72
2023-01-08T19:46:07.042Z,99858.47
2023-01-08T19:48:37.487Z,99851.41
2023-01-08T19:51:08.575Z,99842.78
2023-01-08T19:53:38.550Z,99841.94
2023-01-08T19:56:09.213Z,99833.25
2023-01-08T19:58:37.714Z,99844.50
2023-01-08T20:01:10.476Z,99834.94
2023-01-08T20:03:39.305Z,99835.69
2023-01-08T20:06:09.266Z,99837.31
2023-01-08T20:08:39.446Z,99826.13
2023-01-08T20:11:09.816Z,99826.13
2023-01-08T20:13:38.679Z,99821.72
2023-01-08T20:16:09.268Z,99820.75
2023-01-08T20:18:37.920Z,99820.72
2023-01-08T20:21:09.445Z,99819.75
2023-01-08T20:23:39.898Z,99821.47
2023-01-08T20:26:14.014Z,99820.41
2023-01-08T20:28:44.023Z,99820.34
2023-01-08T20:31:15.250Z,99804.66
2023-01-08T20:33:44.047Z,99804.53
2023-01-08T20:36:16.106Z,99801.78
2023-01-08T20:38:46.332Z,99802.59
2023-01-08T20:41:14.812Z,99802.50
2023-01-08T20:43:43.564Z,99799.00
2023-01-08T20:46:13.831Z,99792.91
2023-01-08T20:48:47.652Z,99795.31
2023-01-08T20:51:17.536Z,99787.44
2023-01-08T20:53:47.304Z,99787.41
2023-01-08T20:56:16.358Z,99795.03
2023-01-08T20:58:47.358Z,99793.28
2023-01-08T21:01:18.241Z,99794.13
2023-01-08T21:03:48.286Z,99787.22
2023-01-08T21:06:19.146Z,99788.03
2023-01-08T21:08:51.540Z,99791.44
2023-01-08T21:11:20.798Z,99783.56
2023-01-08T21:13:49.506Z,99784.41
2023-01-08T21:16:22.718Z,99786.22
2023-01-08T21:18:51.361Z,99778.41
2023-01-08T21:21:22.603Z,99780.94
2023-01-08T21:23:52.538Z,99780.09
2023-01-08T21:26:21.257Z,99782.59
2023-01-08T21:28:49.776Z,99778.31
2023-01-08T21:31:20.164Z,99765.38
2023-01-08T21:33:49.619Z,99753.31
2023-01-08T21:36:20.405Z,99749.09
2023-01-08T21:38:49.473Z,99757.72
2023-01-08T21:41:40.165Z,99758.44
2023-01-08T21:44:30.931Z,99756.63
2023-01-08T21:47:00.165Z,99763.59
2023-01-08T21:49:29.113Z,99760.09
2023-01-08T21:52:14.693Z,99758.44
2023-01-08T21:54:43.217Z,99748.22
2023-01-08T21:57:13.277Z,99741.38
2023-01-08T21:59:41.689Z,99737.91
2023-01-08T22:02:15.877Z,99728.47
2023-01-08T22:04:45.205Z,99727.56
2023-01-08T22:07:14.611Z,99722.47
2023-01-08T22:09:43.116Z,99718.16
2023-01-08T22:12:14.030Z,99711.31
2023-01-08T22:14:42.426Z,99706.97
2023-01-08T22:17:10.828Z,99698.34
2023-01-08T22:19:39.897Z,99701.88
2023-01-08T22:22:10.875Z,99704.41
2023-01-08T22:24:40.367Z,99704.47
2023-01-08T22:27:09.410Z,99699.31
2023-01-08T22:29:39.246Z,99705.34
2023-01-08T22:32:07.609Z,99695.06
2023-01-08T22:34:36.765Z,99698.50
2023-01-08T22:37:05.255Z,99691.59
2023-01-08T22:39:33.671Z,99690.72
2023-01-08T22:42:02.067Z,99686.44
2023-01-08T22:44:30.681Z,99696.78
2023-01-08T22:47:02.574Z,99703.59
2023-01-08T22:49:30.986Z,99694.91
2023-01-08T22:51:59.793Z,99700.00
2023-01-08T22:54:28.555Z,99690.53
2023-01-08T22:56:57.055Z,99685.31
2023-01-08T22:59:25.479Z,99683.56
2023-01-08T23:01:53.869Z,99670.47
2023-01-08T23:04:23.919Z,99666.94
2023-01-08T23:06:52.367Z,99670.41
2023-01-08T23:09:20.711Z,99656.44
2023-01-08T23:11:49.104Z,99659.75
2023-01-08T23:14:17.452Z,99649.34
2023-01-08T23:16:45.816Z,99644.09
2023-01-08T23:19:14.375Z,99647.63
2023-01-08T23:21:44.208Z,99648.34
2023-01-08T23:24:13.875Z,99655.97
2023-01-08T23:26:42.717Z,99648.97
2023-01-08T23:29:11.611Z,99648.91
2023-01-08T23:31:40.167Z,99639.38
2023-01-08T23:34:08.924Z,99642.00
2023-01-08T23:36:37.549Z,99627.25
2023-01-08T23:39:07.678Z,99629.66
2023-01-08T23:41:36.053Z,99629.53
2023-01-08T23:44:08.137Z,99627.63
2023-01-08T23:46:37.293Z,99624.03
2023-01-08T23:49:07.256Z,99632.53
2023-01-08T23:51:35.978Z,99635.91
2023-01-08T23:54:04.661Z,99623.69
2023-01-08T23:56:34.456Z,99616.72
2023-01-08T23:59:02.966Z,99615.88
